createdAt,value
2018-06-24T00:00:33.468Z,19.17
2018-06-24T00:03:03.368Z,16.90
2018-06-24T00:05:33.195Z,15.70
2018-06-24T00:08:02.917Z,11.90
2018-06-24T00:10:32.676Z,12.07
2018-06-24T00:13:02.336Z,10.63
2018-06-24T00:15:31.986Z,10.40
2018-06-24T00:18:01.661Z,15.83
2018-06-24T00:20:31.337Z,15.27
2018-06-24T00:23:01.053Z,16.20
2018-06-24T00:25:30.759Z,17.37
2018-06-24T00:28:00.493Z,16.83
2018-06-24T00:30:30.254Z,15.80
2018-06-24T00:32:59.921Z,15.23
2018-06-24T00:35:29.645Z,14.10
2018-06-24T00:37:59.299Z,15.23
2018-06-24T00:40:28.983Z,12.20
2018-06-24T00:42:58.703Z,11.20
2018-06-24T00:45:28.578Z,11.83
2018-06-24T00:50:32.721Z,10.63
2018-06-24T00:53:02.380Z,14.20
2018-06-24T00:55:31.712Z,10.53
2018-06-24T00:58:01.401Z,10.53
2018-06-24T01:00:31.076Z,9.10
2018-06-24T01:03:00.733Z,14.00
2018-06-24T01:05:30.157Z,14.40
2018-06-24T01:07:59.886Z,9.13
2018-06-24T01:10:29.557Z,12.97
2018-06-24T01:12:59.257Z,8.33
2018-06-24T01:15:28.942Z,16.10
2018-06-24T01:17:58.671Z,14.60
2018-06-24T01:20:28.533Z,11.87
2018-06-24T01:22:58.190Z,8.97
2018-06-24T01:25:27.816Z,15.63
2018-06-24T01:27:57.533Z,10.97
2018-06-24T01:30:27.178Z,12.60
2018-06-24T01:32:56.832Z,8.93
2018-06-24T01:35:26.594Z,13.07
2018-06-24T01:37:56.273Z,10.33
2018-06-24T01:40:25.922Z,13.70
2018-06-24T01:42:55.561Z,10.50
2018-06-24T01:45:25.238Z,10.57
2018-06-24T01:47:54.547Z,12.03
2018-06-24T01:50:23.955Z,16.47
2018-06-24T01:52:53.585Z,15.67
2018-06-24T01:55:23.265Z,13.33
2018-06-24T01:57:53.011Z,14.27
2018-06-24T02:00:22.686Z,15.90
2018-06-24T02:02:52.084Z,15.40
2018-06-24T02:05:21.777Z,15.57
2018-06-24T02:07:51.454Z,12.33
2018-06-24T02:10:21.401Z,14.83
2018-06-24T02:12:51.074Z,14.43
2018-06-24T02:15:20.713Z,14.37
2018-06-24T02:17:50.341Z,13.13
2018-06-24T02:20:19.985Z,12.93
2018-06-24T02:22:49.634Z,14.00
2018-06-24T02:25:19.406Z,13.73
2018-06-24T02:27:49.127Z,17.43
2018-06-24T02:30:18.819Z,15.80
2018-06-24T02:32:48.492Z,13.63
2018-06-24T02:35:18.161Z,18.10
2018-06-24T02:37:47.816Z,18.13
2018-06-24T02:40:17.461Z,18.43
2018-06-24T02:42:47.208Z,13.70
2018-06-24T02:45:16.838Z,14.67
2018-06-24T02:47:46.178Z,12.97
2018-06-24T02:50:15.826Z,15.00
2018-06-24T02:52:45.453Z,25.53
2018-06-24T02:55:14.780Z,16.93
2018-06-24T02:57:44.454Z,39.20
2018-06-24T03:00:15.162Z,19.30
2018-06-24T03:02:45.057Z,19.63
2018-06-24T03:05:14.689Z,13.60
2018-06-24T03:07:44.385Z,17.83
2018-06-24T03:10:14.074Z,18.53
2018-06-24T03:12:43.734Z,16.03
2018-06-24T03:15:13.361Z,17.77
2018-06-24T03:17:43.044Z,19.13
2018-06-24T03:20:12.769Z,16.00
2018-06-24T03:22:42.721Z,15.07
2018-06-24T03:25:12.084Z,17.00
2018-06-24T03:27:41.412Z,18.03
2018-06-24T03:30:11.186Z,18.50
2018-06-24T03:32:40.814Z,14.90
2018-06-24T03:35:10.508Z,16.20
2018-06-24T03:37:40.187Z,16.87
2018-06-24T03:40:09.866Z,16.77
2018-06-24T03:42:39.496Z,20.87
2018-06-24T03:45:09.162Z,15.93
2018-06-24T03:47:38.806Z,16.30
2018-06-24T03:50:08.549Z,14.67
2018-06-24T03:52:37.915Z,17.17
2018-06-24T03:55:07.664Z,15.87
2018-06-24T03:57:37.407Z,16.97
2018-06-24T04:00:07.862Z,15.90
2018-06-24T04:02:37.756Z,20.93
2018-06-24T04:05:07.481Z,18.83
2018-06-24T04:07:37.182Z,18.40
2018-06-24T04:10:06.942Z,19.53
2018-06-24T04:12:36.721Z,21.47
2018-06-24T04:15:06.670Z,23.70
2018-06-24T04:17:36.405Z,26.23
2018-06-24T04:20:06.111Z,21.33
2018-06-24T04:22:35.814Z,19.97
2018-06-24T04:25:05.584Z,21.47
2018-06-24T04:27:35.317Z,19.60
2018-06-24T04:30:06.281Z,19.53
2018-06-24T04:32:35.973Z,24.97
2018-06-24T04:35:05.824Z,30.40
2018-06-24T04:37:35.452Z,25.50
2018-06-24T04:40:05.368Z,20.33
2018-06-24T04:42:35.071Z,25.13
2018-06-24T04:45:05.065Z,23.10
2018-06-24T04:47:34.836Z,26.47
2018-06-24T04:50:04.668Z,23.30
2018-06-24T04:52:34.480Z,24.50
2018-06-24T04:55:04.159Z,21.93
2018-06-24T04:57:33.937Z,21.30
2018-06-24T05:00:03.736Z,23.07
2018-06-24T05:02:33.404Z,28.53
2018-06-24T05:05:03.091Z,22.00
2018-06-24T05:07:32.730Z,21.67
2018-06-24T05:10:02.351Z,19.40
2018-06-24T05:12:31.688Z,23.27
2018-06-24T05:15:01.397Z,23.33
2018-06-24T05:17:31.101Z,22.30
2018-06-24T05:20:00.732Z,23.67
2018-06-24T05:22:30.403Z,23.10
2018-06-24T05:24:59.792Z,17.67
2018-06-24T05:27:29.532Z,18.40
2018-06-24T05:29:59.166Z,16.50
2018-06-24T05:32:28.976Z,18.60
2018-06-24T05:34:58.772Z,16.37
2018-06-24T05:37:28.414Z,16.77
2018-06-24T05:39:58.045Z,18.43
2018-06-24T05:42:27.726Z,21.90
2018-06-24T05:44:57.393Z,17.90
2018-06-24T05:47:27.057Z,27.23
2018-06-24T05:49:56.762Z,21.60
2018-06-24T05:52:26.394Z,17.60
2018-06-24T05:54:56.093Z,18.83
2018-06-24T05:57:25.879Z,18.10
2018-06-24T05:59:55.313Z,14.83
2018-06-24T06:02:25.085Z,20.63
2018-06-24T06:04:54.778Z,16.40
2018-06-24T06:07:24.493Z,17.00
2018-06-24T06:09:54.124Z,16.17
2018-06-24T06:12:23.921Z,15.53
2018-06-24T06:14:53.794Z,15.97
2018-06-24T06:17:23.505Z,15.87
2018-06-24T06:19:53.157Z,15.10
2018-06-24T06:22:22.956Z,16.17
2018-06-24T06:24:52.601Z,18.77
2018-06-24T06:27:22.384Z,15.63
2018-06-24T06:29:52.049Z,16.33
2018-06-24T06:32:21.871Z,16.70
2018-06-24T06:34:51.216Z,21.20
2018-06-24T06:37:20.900Z,16.87
2018-06-24T06:39:50.825Z,15.90
2018-06-24T06:42:20.500Z,17.77
2018-06-24T06:44:50.138Z,19.30
2018-06-24T06:47:19.842Z,16.50
2018-06-24T06:49:49.274Z,16.20
2018-06-24T06:52:18.948Z,15.63
2018-06-24T06:54:48.673Z,13.20
2018-06-24T06:57:18.008Z,14.43
2018-06-24T06:59:47.892Z,14.60
2018-06-24T07:02:17.273Z,13.00
2018-06-24T07:04:47.010Z,11.83
2018-06-24T07:07:16.300Z,10.20
2018-06-24T07:09:45.945Z,8.27
2018-06-24T07:12:15.765Z,11.00
2018-06-24T07:14:45.389Z,8.60
2018-06-24T07:17:15.163Z,8.60
2018-06-24T07:19:45.095Z,11.30
2018-06-24T07:22:14.827Z,10.17
2018-06-24T07:24:44.485Z,7.83
2018-06-24T07:27:14.125Z,10.40
2018-06-24T07:29:43.480Z,10.70
2018-06-24T07:32:13.955Z,9.03
2018-06-24T07:34:43.613Z,12.17
2018-06-24T07:37:13.350Z,8.80
2018-06-24T07:39:43.029Z,16.27
2018-06-24T07:42:12.724Z,11.57
2018-06-24T07:44:42.462Z,9.73
2018-06-24T07:47:12.242Z,7.60
2018-06-24T07:49:41.927Z,10.23
2018-06-24T07:52:11.597Z,9.40
2018-06-24T07:54:41.249Z,8.33
2018-06-24T07:57:11.000Z,12.50
2018-06-24T07:59:40.692Z,9.83
2018-06-24T08:02:10.369Z,11.33
2018-06-24T08:04:40.030Z,9.90
2018-06-24T08:07:09.393Z,10.83
2018-06-24T08:09:39.182Z,8.20
2018-06-24T08:12:09.098Z,12.47
2018-06-24T08:14:38.738Z,10.63
2018-06-24T08:17:08.388Z,7.07
2018-06-24T08:19:37.710Z,12.67
2018-06-24T08:22:07.139Z,12.10
2018-06-24T08:24:36.907Z,12.30
2018-06-24T08:27:06.734Z,9.60
2018-06-24T08:29:36.496Z,11.17
2018-06-24T08:32:06.259Z,9.30
2018-06-24T08:34:36.240Z,12.03
2018-06-24T08:37:05.933Z,13.93
2018-06-24T08:39:35.602Z,14.13
2018-06-24T08:42:05.520Z,11.77
2018-06-24T08:44:35.241Z,7.67
2018-06-24T08:47:04.573Z,10.37
2018-06-24T08:49:34.327Z,16.30
2018-06-24T08:52:04.022Z,11.20
2018-06-24T08:54:33.737Z,13.60
2018-06-24T08:57:03.589Z,10.63
2018-06-24T08:59:33.248Z,15.83
2018-06-24T09:02:02.928Z,15.83
2018-06-24T09:04:32.330Z,15.67
2018-06-24T09:07:02.136Z,17.00
2018-06-24T09:09:31.861Z,18.07
2018-06-24T09:12:01.527Z,11.40
2018-06-24T09:14:31.268Z,16.13
2018-06-24T09:17:00.924Z,13.20
2018-06-24T09:19:30.787Z,24.43
2018-06-24T09:22:00.533Z,16.00
2018-06-24T09:24:30.265Z,14.27
2018-06-24T09:27:00.046Z,15.03
2018-06-24T09:29:29.741Z,16.10
2018-06-24T09:31:59.565Z,14.40
2018-06-24T09:34:29.250Z,13.93
2018-06-24T09:36:59.000Z,13.17
2018-06-24T09:39:28.673Z,17.37
2018-06-24T09:41:58.522Z,15.90
2018-06-24T09:44:28.217Z,12.10
2018-06-24T09:46:57.924Z,14.73
2018-06-24T09:49:27.693Z,14.73
2018-06-24T09:51:57.328Z,13.67
2018-06-24T09:54:27.038Z,14.47
2018-06-24T09:56:59.861Z,11.87
2018-06-24T09:59:29.194Z,13.90
2018-06-24T10:01:58.887Z,16.37
2018-06-24T10:04:28.685Z,11.23
2018-06-24T10:06:58.481Z,14.03
2018-06-24T10:09:28.641Z,14.27
2018-06-24T10:11:58.331Z,9.53
2018-06-24T10:14:28.086Z,16.30
2018-06-24T10:16:57.460Z,9.57
2018-06-24T10:19:27.325Z,13.40
2018-06-24T10:21:57.016Z,9.40
2018-06-24T10:24:26.839Z,8.83
2018-06-24T10:26:56.566Z,7.30
2018-06-24T10:29:26.348Z,11.20
2018-06-24T10:31:56.177Z,8.30
2018-06-24T10:34:25.819Z,9.80
2018-06-24T10:36:55.569Z,12.13
2018-06-24T10:39:25.219Z,9.83
2018-06-24T10:41:54.904Z,9.33
2018-06-24T10:44:24.573Z,7.33
2018-06-24T10:46:54.129Z,9.83
2018-06-24T10:49:23.774Z,6.67
2018-06-24T10:51:53.442Z,5.17
2018-06-24T10:54:23.090Z,8.03
2018-06-24T10:56:52.726Z,7.27
2018-06-24T10:59:22.392Z,14.20
2018-06-24T11:01:52.128Z,7.63
2018-06-24T11:04:21.820Z,7.17
2018-06-24T11:06:51.609Z,5.53
2018-06-24T11:09:21.366Z,7.37
2018-06-24T11:11:50.961Z,8.00
2018-06-24T11:14:20.645Z,7.90
2018-06-24T11:16:50.338Z,11.33
2018-06-24T11:19:20.005Z,10.00
2018-06-24T11:21:49.623Z,8.63
2018-06-24T11:24:19.279Z,8.70
2018-06-24T11:26:49.010Z,4.63
2018-06-24T11:29:18.669Z,7.70
2018-06-24T11:31:48.383Z,5.43
2018-06-24T11:34:18.186Z,4.77
2018-06-24T11:36:48.066Z,4.60
2018-06-24T11:39:17.810Z,8.23
2018-06-24T11:41:47.488Z,5.60
2018-06-24T11:44:17.362Z,4.30
2018-06-24T11:46:47.010Z,4.10
2018-06-24T11:49:16.688Z,4.17
2018-06-24T11:51:46.398Z,4.37
2018-06-24T11:54:16.325Z,3.93
2018-06-24T11:56:46.025Z,3.80
2018-06-24T11:59:15.705Z,5.60
2018-06-24T12:01:45.397Z,4.00
2018-06-24T12:04:15.283Z,8.00
2018-06-24T12:06:44.907Z,4.97
2018-06-24T12:09:14.489Z,4.10
2018-06-24T12:11:44.218Z,4.00
2018-06-24T12:14:13.931Z,3.47
2018-06-24T12:16:43.609Z,4.67
2018-06-24T12:19:13.350Z,4.10
2018-06-24T12:21:43.030Z,3.20
2018-06-24T12:24:12.837Z,3.90
2018-06-24T12:26:42.544Z,4.90
2018-06-24T12:29:12.495Z,6.13
2018-06-24T12:31:42.190Z,5.33
2018-06-24T12:34:11.899Z,4.50
2018-06-24T12:36:42.861Z,3.90
2018-06-24T12:39:14.576Z,3.00
2018-06-24T12:41:44.268Z,2.53
2018-06-24T12:44:14.032Z,6.03
2018-06-24T12:46:46.577Z,5.30
2018-06-24T12:49:16.284Z,3.90
2018-06-24T12:51:45.924Z,3.80
2018-06-24T12:54:15.574Z,5.83
2018-06-24T12:56:45.353Z,7.07
2018-06-24T12:59:15.296Z,5.20
2018-06-24T13:01:44.883Z,2.60
2018-06-24T13:04:14.685Z,5.60
2018-06-24T13:06:44.373Z,3.13
2018-06-24T13:09:14.145Z,6.47
2018-06-24T13:11:43.867Z,5.77
2018-06-24T13:14:13.768Z,3.40
2018-06-24T13:16:43.462Z,3.83
2018-06-24T13:19:13.234Z,3.83
2018-06-24T13:21:42.621Z,4.30
2018-06-24T13:24:12.349Z,3.00
2018-06-24T13:26:42.085Z,6.37
2018-06-24T13:29:11.825Z,4.63
2018-06-24T13:31:41.504Z,6.73
2018-06-24T13:34:11.229Z,5.57
2018-06-24T13:36:40.715Z,6.00
2018-06-24T13:39:11.585Z,5.87
2018-06-24T13:41:41.368Z,4.33
2018-06-24T13:44:11.149Z,4.60
2018-06-24T13:46:40.855Z,9.77
2018-06-24T13:49:10.560Z,6.20
2018-06-24T13:51:40.425Z,4.10
2018-06-24T13:54:10.083Z,3.00
2018-06-24T13:56:39.790Z,4.90
2018-06-24T13:59:09.527Z,6.23
2018-06-24T14:01:39.204Z,5.43
2018-06-24T14:04:09.272Z,4.87
2018-06-24T14:06:38.931Z,3.03
2018-06-24T14:09:11.661Z,6.47
2018-06-24T14:11:41.461Z,9.10
2018-06-24T14:14:11.327Z,4.67
2018-06-24T14:16:41.241Z,6.03
2018-06-24T14:19:11.093Z,6.17
2018-06-24T14:21:40.853Z,7.60
2018-06-24T14:24:10.509Z,5.57
2018-06-24T14:26:40.236Z,6.40
2018-06-24T14:29:09.923Z,6.63
2018-06-24T14:31:39.287Z,4.40
2018-06-24T14:34:09.102Z,4.70
2018-06-24T14:36:38.845Z,5.20
2018-06-24T14:39:10.550Z,5.07
2018-06-24T14:41:40.596Z,3.63
2018-06-24T14:44:10.448Z,8.87
2018-06-24T14:46:39.701Z,8.77
2018-06-24T14:49:09.384Z,8.00
2018-06-24T14:51:39.118Z,4.73
2018-06-24T14:54:08.853Z,6.70
2018-06-24T14:56:38.635Z,5.33
2018-06-24T14:59:08.413Z,6.97
2018-06-24T15:01:38.124Z,4.30
2018-06-24T15:04:07.906Z,4.13
2018-06-24T15:06:37.579Z,5.00
2018-06-24T15:09:10.926Z,5.50
2018-06-24T15:11:40.951Z,5.20
2018-06-24T15:14:10.666Z,5.63
2018-06-24T15:16:40.510Z,4.17
2018-06-24T15:19:10.155Z,5.60
2018-06-24T15:21:39.858Z,5.60
2018-06-24T15:24:09.585Z,4.90
2018-06-24T15:26:39.234Z,3.43
2018-06-24T15:29:09.051Z,3.67
2018-06-24T15:31:38.770Z,4.53
2018-06-24T15:34:08.515Z,4.10
2018-06-24T15:36:37.984Z,3.60
2018-06-24T15:39:11.116Z,3.97
2018-06-24T15:41:41.311Z,5.87
2018-06-24T15:44:11.003Z,6.83
2018-06-24T15:46:40.798Z,5.17
2018-06-24T15:49:10.521Z,3.40
2018-06-24T15:51:40.214Z,5.50
2018-06-24T15:54:09.928Z,4.20
2018-06-24T15:56:39.669Z,4.60
2018-06-24T15:59:09.424Z,9.03
2018-06-24T16:01:39.126Z,6.73
2018-06-24T16:04:08.819Z,5.53
2018-06-24T16:06:38.578Z,4.63
2018-06-24T16:09:11.644Z,4.60
2018-06-24T16:11:41.407Z,7.03
2018-06-24T16:14:11.189Z,5.93
2018-06-24T16:16:40.931Z,6.00
2018-06-24T16:19:10.626Z,6.87
2018-06-24T16:21:40.354Z,3.77
2018-06-24T16:24:10.202Z,6.30
2018-06-24T16:26:39.968Z,3.70
2018-06-24T16:29:09.780Z,5.20
2018-06-24T16:31:39.115Z,7.47
2018-06-24T16:34:08.825Z,4.20
2018-06-24T16:36:38.597Z,5.17
2018-06-24T16:39:11.564Z,4.83
2018-06-24T16:41:41.439Z,4.90
2018-06-24T16:44:11.643Z,3.27
2018-06-24T16:46:41.012Z,7.43
2018-06-24T16:49:10.771Z,4.53
2018-06-24T16:51:40.172Z,5.67
2018-06-24T16:54:09.947Z,5.03
2018-06-24T16:56:39.680Z,7.70
2018-06-24T16:59:09.389Z,4.13
2018-06-24T17:01:39.180Z,5.00
2018-06-24T17:04:09.076Z,4.40
2018-06-24T17:06:38.745Z,5.60
2018-06-24T17:09:09.560Z,3.70
2018-06-24T17:11:39.389Z,6.73
2018-06-24T17:14:09.165Z,4.60
2018-06-24T17:16:38.952Z,3.20
2018-06-24T17:19:08.794Z,3.10
2018-06-24T17:21:38.565Z,3.93
2018-06-24T17:24:08.490Z,4.23
2018-06-24T17:26:37.854Z,5.80
2018-06-24T17:29:07.600Z,5.80
2018-06-24T17:31:36.938Z,6.63
2018-06-24T17:34:06.814Z,4.97
2018-06-24T17:36:36.529Z,5.67
2018-06-24T17:39:11.133Z,5.20
2018-06-24T17:41:41.245Z,4.63
2018-06-24T17:44:11.194Z,6.27
2018-06-24T17:46:40.971Z,4.73
2018-06-24T17:49:10.743Z,6.07
2018-06-24T17:51:40.157Z,12.87
2018-06-24T17:54:09.876Z,6.03
2018-06-24T17:56:39.744Z,5.13
2018-06-24T17:59:09.658Z,7.40
2018-06-24T18:01:39.334Z,4.07
2018-06-24T18:04:09.022Z,9.50
2018-06-24T18:06:39.002Z,4.30
2018-06-24T18:09:11.229Z,7.13
2018-06-24T18:11:41.285Z,11.23
2018-06-24T18:14:11.019Z,13.90
2018-06-24T18:16:40.793Z,5.10
2018-06-24T18:19:10.434Z,4.30
2018-06-24T18:21:39.900Z,5.43
2018-06-24T18:24:09.598Z,6.57
2018-06-24T18:26:39.602Z,6.30
2018-06-24T18:29:09.357Z,7.27
2018-06-24T18:31:39.165Z,5.00
2018-06-24T18:34:08.897Z,8.20
2018-06-24T18:36:38.633Z,10.20
2018-06-24T18:39:09.983Z,8.13
2018-06-24T18:41:40.678Z,4.50
2018-06-24T18:44:10.378Z,6.27
2018-06-24T18:46:40.173Z,6.93
2018-06-24T18:49:10.034Z,10.13
2018-06-24T18:51:39.775Z,7.17
2018-06-24T18:54:09.507Z,6.10
2018-06-24T18:56:39.169Z,8.63
2018-06-24T18:59:08.992Z,5.17
2018-06-24T19:01:38.819Z,9.13
2018-06-24T19:04:08.537Z,5.10
2018-06-24T19:06:38.256Z,6.57
2018-06-24T19:09:11.736Z,6.13
2018-06-24T19:11:41.572Z,5.53
2018-06-24T19:14:11.307Z,4.33
2018-06-24T19:16:41.847Z,4.67
2018-06-24T19:19:11.627Z,5.80
2018-06-24T19:21:41.412Z,10.27
2018-06-24T19:24:11.210Z,5.80
2018-06-24T19:26:40.900Z,4.90
2018-06-24T19:29:10.609Z,6.93
2018-06-24T19:31:40.368Z,7.83
2018-06-24T19:34:10.241Z,7.00
2018-06-24T19:36:39.885Z,4.70
2018-06-24T19:39:11.763Z,8.40
2018-06-24T19:41:42.046Z,6.10
2018-06-24T19:44:12.145Z,6.63
2018-06-24T19:46:41.911Z,7.77
2018-06-24T19:49:11.761Z,10.03
2018-06-24T19:51:41.526Z,6.03
2018-06-24T19:54:11.288Z,3.43
2018-06-24T19:56:41.167Z,6.37
2018-06-24T19:59:10.783Z,3.97
2018-06-24T20:01:40.327Z,5.27
2018-06-24T20:04:10.403Z,6.37
2018-06-24T20:06:40.223Z,5.97
2018-06-24T20:09:10.727Z,3.87
2018-06-24T20:11:40.686Z,4.57
2018-06-24T20:14:10.509Z,4.10
2018-06-24T20:16:40.320Z,4.40
2018-06-24T20:19:10.284Z,6.10
2018-06-24T20:21:40.060Z,7.00
2018-06-24T20:24:09.739Z,9.43
2018-06-24T20:26:39.537Z,5.00
2018-06-24T20:29:09.418Z,7.33
2018-06-24T20:31:39.129Z,7.10
2018-06-24T20:34:08.850Z,8.00
2018-06-24T20:36:38.567Z,6.17
2018-06-24T20:39:09.789Z,4.80
2018-06-24T20:41:39.606Z,5.97
2018-06-24T20:44:09.365Z,10.07
2018-06-24T20:46:39.124Z,3.77
2018-06-24T20:49:08.526Z,8.10
2018-06-24T20:51:38.317Z,4.37
2018-06-24T20:54:08.167Z,5.80
2018-06-24T20:56:37.977Z,5.73
2018-06-24T20:59:07.344Z,6.70
2018-06-24T21:01:37.180Z,6.60
2018-06-24T21:04:07.250Z,5.93
2018-06-24T21:06:36.888Z,7.47
2018-06-24T21:09:10.336Z,11.67
2018-06-24T21:11:39.757Z,7.93
2018-06-24T21:14:09.512Z,12.10
2018-06-24T21:16:39.307Z,9.53
2018-06-24T21:19:08.935Z,9.97
2018-06-24T21:21:38.625Z,13.23
2018-06-24T21:24:08.633Z,11.40
2018-06-24T21:26:38.378Z,11.13
2018-06-24T21:29:08.071Z,10.23
2018-06-24T21:31:38.820Z,9.57
2018-06-24T21:34:08.481Z,8.90
2018-06-24T21:36:37.812Z,11.97
2018-06-24T21:39:09.880Z,10.13
2018-06-24T21:41:39.585Z,10.03
2018-06-24T21:44:09.468Z,9.60
2018-06-24T21:46:39.233Z,9.10
2018-06-24T21:49:09.105Z,7.17
2018-06-24T21:51:38.779Z,6.47
2018-06-24T21:54:08.505Z,9.70
2018-06-24T21:56:38.322Z,5.30
2018-06-24T21:59:08.102Z,5.80
2018-06-24T22:01:37.774Z,5.43
2018-06-24T22:04:07.677Z,5.70
2018-06-24T22:06:37.461Z,5.67
2018-06-24T22:09:10.826Z,7.10
2018-06-24T22:11:40.590Z,7.27
2018-06-24T22:14:11.069Z,5.57
2018-06-24T22:16:41.023Z,6.00
2018-06-24T22:19:10.817Z,8.03
2018-06-24T22:21:40.539Z,7.33
2018-06-24T22:24:10.243Z,10.97
2018-06-24T22:26:39.981Z,6.90
2018-06-24T22:29:09.725Z,8.77
2018-06-24T22:31:39.508Z,8.47
2018-06-24T22:34:09.539Z,8.40
2018-06-24T22:36:39.190Z,5.70
2018-06-24T22:39:11.301Z,6.53
2018-06-24T22:41:40.998Z,6.00
2018-06-24T22:44:10.673Z,5.90
2018-06-24T22:46:40.496Z,5.30
2018-06-24T22:49:10.353Z,5.20
2018-06-24T22:51:40.161Z,6.23
2018-06-24T22:54:09.848Z,7.53
2018-06-24T22:56:39.208Z,6.63
2018-06-24T22:59:25.693Z,6.40
2018-06-24T23:01:55.408Z,14.30
2018-06-24T23:04:25.087Z,7.40
2018-06-24T23:06:54.876Z,7.80
2018-06-24T23:09:24.732Z,5.53
2018-06-24T23:11:54.492Z,11.80
2018-06-24T23:14:24.276Z,5.77
2018-06-24T23:16:54.029Z,6.00
2018-06-24T23:19:23.682Z,6.60
2018-06-24T23:21:53.321Z,5.70
2018-06-24T23:24:22.992Z,8.10
2018-06-24T23:26:52.710Z,6.17
2018-06-24T23:29:22.311Z,9.10
2018-06-24T23:31:51.961Z,10.20
2018-06-24T23:34:21.694Z,7.50
2018-06-24T23:36:51.336Z,10.20
2018-06-24T23:39:21.189Z,11.13
2018-06-24T23:41:50.902Z,11.80
2018-06-24T23:44:20.549Z,13.13
2018-06-24T23:46:50.720Z,15.57
2018-06-24T23:49:20.483Z,15.37
2018-06-24T23:51:50.272Z,12.57
2018-06-24T23:54:19.989Z,13.80
2018-06-24T23:56:49.900Z,9.60
2018-06-24T23:59:19.640Z,10.27
